sensor_id;sensor_type;location;lat;lon;timestamp;P1;durP1;ratioP1;P2;durP2;ratioP2
78871;SDS011;68247;43.514;1.502;2023-05-07T00:00:16;10.40;;;4.68;;
78871;SDS011;68247;43.514;1.502;2023-05-07T00:02:43;9.47;;;5.00;;
78871;SDS011;68247;43.514;1.502;2023-05-07T00:05:09;9.25;;;4.60;;
78871;SDS011;68247;43.514;1.502;2023-05-07T00:07:35;10.97;;;5.17;;
78871;SDS011;68247;43.514;1.502;2023-05-07T00:10:01;11.60;;;5.10;;
78871;SDS011;68247;43.514;1.502;2023-05-07T00:12:27;10.10;;;4.68;;
78871;SDS011;68247;43.514;1.502;2023-05-07T00:14:52;8.50;;;3.93;;
78871;SDS011;68247;43.514;1.502;2023-05-07T00:17:18;10.30;;;4.53;;
78871;SDS011;68247;43.514;1.502;2023-05-07T00:19:43;10.70;;;4.77;;
78871;SDS011;68247;43.514;1.502;2023-05-07T00:22:08;10.90;;;4.68;;
78871;SDS011;68247;43.514;1.502;2023-05-07T00:24:34;10.37;;;5.00;;
78871;SDS011;68247;43.514;1.502;2023-05-07T00:26:59;11.23;;;5.03;;
78871;SDS011;68247;43.514;1.502;2023-05-07T00:29:25;10.55;;;4.72;;
78871;SDS011;68247;43.514;1.502;2023-05-07T00:31:50;10.53;;;4.53;;
78871;SDS011;68247;43.514;1.502;2023-05-07T00:34:16;13.53;;;4.83;;
78871;SDS011;68247;43.514;1.502;2023-05-07T00:36:42;8.15;;;4.40;;
78871;SDS011;68247;43.514;1.502;2023-05-07T00:39:07;8.67;;;4.50;;
78871;SDS011;68247;43.514;1.502;2023-05-07T00:41:32;11.20;;;4.63;;
78871;SDS011;68247;43.514;1.502;2023-05-07T00:43:58;13.57;;;4.50;;
78871;SDS011;68247;43.514;1.502;2023-05-07T00:46:23;11.90;;;4.80;;
78871;SDS011;68247;43.514;1.502;2023-05-07T00:48:52;12.47;;;5.10;;
78871;SDS011;68247;43.514;1.502;2023-05-07T00:51:18;8.55;;;4.75;;
78871;SDS011;68247;43.514;1.502;2023-05-07T00:53:44;10.17;;;5.10;;
78871;SDS011;68247;43.514;1.502;2023-05-07T00:56:09;10.95;;;5.03;;
78871;SDS011;68247;43.514;1.502;2023-05-07T00:58:35;9.80;;;4.30;;
78871;SDS011;68247;43.514;1.502;2023-05-07T01:01:00;11.87;;;4.90;;
78871;SDS011;68247;43.514;1.502;2023-05-07T01:03:25;10.37;;;4.70;;
78871;SDS011;68247;43.514;1.502;2023-05-07T01:05:51;8.80;;;5.13;;
78871;SDS011;68247;43.514;1.502;2023-05-07T01:08:17;12.90;;;5.00;;
78871;SDS011;68247;43.514;1.502;2023-05-07T01:10:43;10.35;;;4.82;;
78871;SDS011;68247;43.514;1.502;2023-05-07T01:13:12;10.33;;;4.67;;
78871;SDS011;68247;43.514;1.502;2023-05-07T01:15:38;9.68;;;4.43;;
78871;SDS011;68247;43.514;1.502;2023-05-07T01:18:03;9.40;;;4.30;;
78871;SDS011;68247;43.514;1.502;2023-05-07T01:20:29;8.20;;;4.10;;
78871;SDS011;68247;43.514;1.502;2023-05-07T01:22:55;11.23;;;4.90;;
78871;SDS011;68247;43.514;1.502;2023-05-07T01:25:21;8.95;;;4.45;;
78871;SDS011;68247;43.514;1.502;2023-05-07T01:27:47;9.47;;;4.20;;
78871;SDS011;68247;43.514;1.502;2023-05-07T01:30:12;9.67;;;4.00;;
78871;SDS011;68247;43.514;1.502;2023-05-07T01:33:20;7.40;;;3.70;;
78871;SDS011;68247;43.514;1.502;2023-05-07T01:35:39;6.15;;;3.50;;
78871;SDS011;68247;43.514;1.502;2023-05-07T01:38:06;12.10;;;4.13;;
78871;SDS011;68247;43.514;1.502;2023-05-07T01:40:32;11.35;;;4.85;;
78871;SDS011;68247;43.514;1.502;2023-05-07T01:42:59;8.50;;;3.28;;
78871;SDS011;68247;43.514;1.502;2023-05-07T01:45:24;8.57;;;3.40;;
78871;SDS011;68247;43.514;1.502;2023-05-07T01:47:50;12.75;;;4.55;;
78871;SDS011;68247;43.514;1.502;2023-05-07T01:50:16;9.38;;;3.58;;
78871;SDS011;68247;43.514;1.502;2023-05-07T01:52:43;10.25;;;3.40;;
78871;SDS011;68247;43.514;1.502;2023-05-07T01:55:09;9.03;;;4.07;;
78871;SDS011;68247;43.514;1.502;2023-05-07T01:57:35;9.63;;;3.43;;
78871;SDS011;68247;43.514;1.502;2023-05-07T02:00:00;10.65;;;3.70;;
78871;SDS011;68247;43.514;1.502;2023-05-07T02:02:27;12.10;;;3.67;;
78871;SDS011;68247;43.514;1.502;2023-05-07T02:04:53;12.17;;;3.87;;
78871;SDS011;68247;43.514;1.502;2023-05-07T02:07:18;11.13;;;2.97;;
78871;SDS011;68247;43.514;1.502;2023-05-07T02:09:44;10.65;;;3.35;;
78871;SDS011;68247;43.514;1.502;2023-05-07T02:12:09;10.63;;;3.63;;
78871;SDS011;68247;43.514;1.502;2023-05-07T02:14:34;8.53;;;3.27;;
78871;SDS011;68247;43.514;1.502;2023-05-07T02:17:00;9.47;;;3.40;;
78871;SDS011;68247;43.514;1.502;2023-05-07T02:19:25;8.13;;;3.43;;
78871;SDS011;68247;43.514;1.502;2023-05-07T02:21:51;7.78;;;3.03;;
78871;SDS011;68247;43.514;1.502;2023-05-07T02:24:16;8.80;;;3.30;;
78871;SDS011;68247;43.514;1.502;2023-05-07T02:26:41;10.33;;;3.67;;
78871;SDS011;68247;43.514;1.502;2023-05-07T02:29:07;9.10;;;3.20;;
78871;SDS011;68247;43.514;1.502;2023-05-07T02:31:32;7.55;;;3.10;;
78871;SDS011;68247;43.514;1.502;2023-05-07T02:33:59;7.10;;;2.90;;
78871;SDS011;68247;43.514;1.502;2023-05-07T02:36:25;9.27;;;3.70;;
78871;SDS011;68247;43.514;1.502;2023-05-07T02:38:51;7.82;;;3.40;;
78871;SDS011;68247;43.514;1.502;2023-05-07T02:41:17;11.33;;;3.10;;
78871;SDS011;68247;43.514;1.502;2023-05-07T02:43:42;8.47;;;2.83;;
78871;SDS011;68247;43.514;1.502;2023-05-07T02:46:08;5.57;;;2.92;;
78871;SDS011;68247;43.514;1.502;2023-05-07T02:48:34;8.67;;;2.73;;
78871;SDS011;68247;43.514;1.502;2023-05-07T02:51:00;7.28;;;2.70;;
78871;SDS011;68247;43.514;1.502;2023-05-07T02:53:26;7.32;;;3.17;;
78871;SDS011;68247;43.514;1.502;2023-05-07T02:55:55;7.77;;;2.90;;
78871;SDS011;68247;43.514;1.502;2023-05-07T02:58:21;7.20;;;2.92;;
78871;SDS011;68247;43.514;1.502;2023-05-07T03:00:47;9.33;;;3.17;;
78871;SDS011;68247;43.514;1.502;2023-05-07T03:03:13;7.33;;;3.40;;
78871;SDS011;68247;43.514;1.502;2023-05-07T03:05:38;8.50;;;3.33;;
78871;SDS011;68247;43.514;1.502;2023-05-07T03:08:04;9.00;;;3.20;;
78871;SDS011;68247;43.514;1.502;2023-05-07T03:10:30;8.60;;;3.00;;
78871;SDS011;68247;43.514;1.502;2023-05-07T03:12:55;8.63;;;3.47;;
78871;SDS011;68247;43.514;1.502;2023-05-07T03:15:21;5.93;;;3.10;;
78871;SDS011;68247;43.514;1.502;2023-05-07T03:17:47;9.73;;;3.47;;
78871;SDS011;68247;43.514;1.502;2023-05-07T03:20:13;9.00;;;3.03;;
78871;SDS011;68247;43.514;1.502;2023-05-07T03:22:38;11.50;;;2.85;;
78871;SDS011;68247;43.514;1.502;2023-05-07T03:25:04;9.47;;;3.37;;
78871;SDS011;68247;43.514;1.502;2023-05-07T03:27:30;7.93;;;2.90;;
78871;SDS011;68247;43.514;1.502;2023-05-07T03:29:55;9.10;;;3.73;;
78871;SDS011;68247;43.514;1.502;2023-05-07T03:32:21;10.67;;;3.00;;
78871;SDS011;68247;43.514;1.502;2023-05-07T03:34:46;7.97;;;3.00;;
78871;SDS011;68247;43.514;1.502;2023-05-07T03:37:11;11.47;;;3.00;;
78871;SDS011;68247;43.514;1.502;2023-05-07T03:39:37;8.57;;;2.87;;
78871;SDS011;68247;43.514;1.502;2023-05-07T03:42:02;9.18;;;2.83;;
78871;SDS011;68247;43.514;1.502;2023-05-07T03:44:28;9.47;;;3.30;;
78871;SDS011;68247;43.514;1.502;2023-05-07T03:46:53;10.03;;;2.87;;
78871;SDS011;68247;43.514;1.502;2023-05-07T03:49:20;11.23;;;2.70;;
78871;SDS011;68247;43.514;1.502;2023-05-07T03:51:45;8.40;;;2.90;;
78871;SDS011;68247;43.514;1.502;2023-05-07T03:54:11;14.13;;;3.57;;
78871;SDS011;68247;43.514;1.502;2023-05-07T03:56:36;7.93;;;3.07;;
78871;SDS011;68247;43.514;1.502;2023-05-07T03:59:02;6.23;;;2.80;;
78871;SDS011;68247;43.514;1.502;2023-05-07T04:01:27;7.35;;;3.03;;
78871;SDS011;68247;43.514;1.502;2023-05-07T04:03:52;9.73;;;2.80;;
78871;SDS011;68247;43.514;1.502;2023-05-07T04:06:18;9.17;;;2.80;;
78871;SDS011;68247;43.514;1.502;2023-05-07T04:08:43;13.57;;;3.10;;
78871;SDS011;68247;43.514;1.502;2023-05-07T04:11:09;10.60;;;3.00;;
78871;SDS011;68247;43.514;1.502;2023-05-07T04:13:34;8.30;;;2.60;;
78871;SDS011;68247;43.514;1.502;2023-05-07T04:16:01;10.00;;;3.30;;
78871;SDS011;68247;43.514;1.502;2023-05-07T04:18:27;7.60;;;2.80;;
78871;SDS011;68247;43.514;1.502;2023-05-07T04:20:53;6.90;;;3.03;;
78871;SDS011;68247;43.514;1.502;2023-05-07T04:23:19;8.15;;;2.63;;
78871;SDS011;68247;43.514;1.502;2023-05-07T04:25:44;7.67;;;2.80;;
78871;SDS011;68247;43.514;1.502;2023-05-07T04:28:10;9.20;;;3.40;;
78871;SDS011;68247;43.514;1.502;2023-05-07T04:30:36;10.07;;;3.35;;
78871;SDS011;68247;43.514;1.502;2023-05-07T04:33:02;7.00;;;3.10;;
78871;SDS011;68247;43.514;1.502;2023-05-07T04:35:27;8.13;;;3.00;;
78871;SDS011;68247;43.514;1.502;2023-05-07T04:37:53;9.80;;;2.97;;
78871;SDS011;68247;43.514;1.502;2023-05-07T04:40:18;12.68;;;3.40;;
78871;SDS011;68247;43.514;1.502;2023-05-07T04:42:43;8.00;;;2.87;;
78871;SDS011;68247;43.514;1.502;2023-05-07T04:45:09;11.83;;;3.60;;
78871;SDS011;68247;43.514;1.502;2023-05-07T04:47:35;9.63;;;2.90;;
78871;SDS011;68247;43.514;1.502;2023-05-07T04:50:01;9.50;;;2.70;;
78871;SDS011;68247;43.514;1.502;2023-05-07T04:52:26;9.13;;;3.03;;
78871;SDS011;68247;43.514;1.502;2023-05-07T04:54:52;12.70;;;3.13;;
78871;SDS011;68247;43.514;1.502;2023-05-07T04:57:17;12.00;;;2.93;;
78871;SDS011;68247;43.514;1.502;2023-05-07T04:59:43;7.82;;;2.85;;
78871;SDS011;68247;43.514;1.502;2023-05-07T05:02:11;13.65;;;3.03;;
78871;SDS011;68247;43.514;1.502;2023-05-07T05:04:37;7.87;;;2.77;;
78871;SDS011;68247;43.514;1.502;2023-05-07T05:07:02;7.07;;;2.67;;
78871;SDS011;68247;43.514;1.502;2023-05-07T05:09:31;12.73;;;2.47;;
78871;SDS011;68247;43.514;1.502;2023-05-07T05:11:56;10.77;;;2.83;;
78871;SDS011;68247;43.514;1.502;2023-05-07T05:14:21;12.47;;;3.00;;
78871;SDS011;68247;43.514;1.502;2023-05-07T05:16:47;8.10;;;2.60;;
78871;SDS011;68247;43.514;1.502;2023-05-07T05:19:12;10.97;;;2.83;;
78871;SDS011;68247;43.514;1.502;2023-05-07T05:21:38;10.90;;;3.10;;
78871;SDS011;68247;43.514;1.502;2023-05-07T05:24:03;8.85;;;2.65;;
78871;SDS011;68247;43.514;1.502;2023-05-07T05:26:29;7.90;;;2.70;;
78871;SDS011;68247;43.514;1.502;2023-05-07T05:28:54;12.63;;;2.57;;
78871;SDS011;68247;43.514;1.502;2023-05-07T05:31:19;10.88;;;3.00;;
78871;SDS011;68247;43.514;1.502;2023-05-07T05:33:46;6.53;;;2.60;;
78871;SDS011;68247;43.514;1.502;2023-05-07T05:36:11;11.32;;;2.90;;
78871;SDS011;68247;43.514;1.502;2023-05-07T05:38:38;10.68;;;3.10;;
78871;SDS011;68247;43.514;1.502;2023-05-07T05:41:04;10.20;;;3.27;;
78871;SDS011;68247;43.514;1.502;2023-05-07T05:43:29;10.68;;;3.08;;
78871;SDS011;68247;43.514;1.502;2023-05-07T05:45:55;7.70;;;3.30;;
78871;SDS011;68247;43.514;1.502;2023-05-07T05:48:21;8.90;;;2.70;;
78871;SDS011;68247;43.514;1.502;2023-05-07T05:50:46;11.53;;;2.97;;
78871;SDS011;68247;43.514;1.502;2023-05-07T05:53:12;14.27;;;3.40;;
78871;SDS011;68247;43.514;1.502;2023-05-07T05:55:37;12.77;;;3.10;;
78871;SDS011;68247;43.514;1.502;2023-05-07T05:58:02;9.57;;;3.50;;
78871;SDS011;68247;43.514;1.502;2023-05-07T06:00:28;13.70;;;3.17;;
78871;SDS011;68247;43.514;1.502;2023-05-07T06:02:54;8.77;;;3.10;;
78871;SDS011;68247;43.514;1.502;2023-05-07T06:05:19;12.55;;;3.15;;
78871;SDS011;68247;43.514;1.502;2023-05-07T06:07:45;14.57;;;3.20;;
78871;SDS011;68247;43.514;1.502;2023-05-07T06:10:10;13.82;;;3.20;;
78871;SDS011;68247;43.514;1.502;2023-05-07T06:12:36;13.37;;;3.10;;
78871;SDS011;68247;43.514;1.502;2023-05-07T06:15:01;12.27;;;3.37;;
78871;SDS011;68247;43.514;1.502;2023-05-07T06:17:27;11.07;;;3.70;;
78871;SDS011;68247;43.514;1.502;2023-05-07T06:19:53;10.60;;;4.00;;
78871;SDS011;68247;43.514;1.502;2023-05-07T06:22:18;12.53;;;3.60;;
78871;SDS011;68247;43.514;1.502;2023-05-07T06:24:44;11.70;;;2.92;;
78871;SDS011;68247;43.514;1.502;2023-05-07T06:27:09;13.33;;;3.87;;
78871;SDS011;68247;43.514;1.502;2023-05-07T06:29:34;9.87;;;3.40;;
78871;SDS011;68247;43.514;1.502;2023-05-07T06:32:10;14.97;;;3.10;;
78871;SDS011;68247;43.514;1.502;2023-05-07T06:34:36;14.38;;;3.40;;
78871;SDS011;68247;43.514;1.502;2023-05-07T06:37:02;11.75;;;3.00;;
78871;SDS011;68247;43.514;1.502;2023-05-07T06:39:28;9.47;;;3.30;;
78871;SDS011;68247;43.514;1.502;2023-05-07T06:41:53;12.40;;;3.67;;
78871;SDS011;68247;43.514;1.502;2023-05-07T06:44:19;9.45;;;3.38;;
78871;SDS011;68247;43.514;1.502;2023-05-07T06:46:44;15.27;;;3.80;;
78871;SDS011;68247;43.514;1.502;2023-05-07T06:49:10;13.07;;;3.87;;
78871;SDS011;68247;43.514;1.502;2023-05-07T06:51:36;13.50;;;3.67;;
78871;SDS011;68247;43.514;1.502;2023-05-07T06:54:02;13.00;;;3.42;;
78871;SDS011;68247;43.514;1.502;2023-05-07T06:56:29;15.53;;;4.27;;
78871;SDS011;68247;43.514;1.502;2023-05-07T06:58:55;15.50;;;3.63;;
78871;SDS011;68247;43.514;1.502;2023-05-07T07:01:20;10.80;;;3.23;;
78871;SDS011;68247;43.514;1.502;2023-05-07T07:03:45;14.70;;;4.20;;
78871;SDS011;68247;43.514;1.502;2023-05-07T07:06:11;11.70;;;3.80;;
78871;SDS011;68247;43.514;1.502;2023-05-07T07:08:37;9.43;;;3.20;;
78871;SDS011;68247;43.514;1.502;2023-05-07T07:11:03;10.65;;;3.60;;
78871;SDS011;68247;43.514;1.502;2023-05-07T07:13:29;15.40;;;4.18;;
78871;SDS011;68247;43.514;1.502;2023-05-07T07:15:55;12.33;;;3.93;;
78871;SDS011;68247;43.514;1.502;2023-05-07T07:18:20;11.80;;;3.50;;
78871;SDS011;68247;43.514;1.502;2023-05-07T07:20:46;9.15;;;3.60;;
78871;SDS011;68247;43.514;1.502;2023-05-07T07:23:11;14.80;;;4.17;;
78871;SDS011;68247;43.514;1.502;2023-05-07T07:25:36;15.97;;;4.30;;
78871;SDS011;68247;43.514;1.502;2023-05-07T07:28:02;12.80;;;3.83;;
78871;SDS011;68247;43.514;1.502;2023-05-07T07:30:27;14.00;;;3.65;;
78871;SDS011;68247;43.514;1.502;2023-05-07T07:32:53;15.37;;;3.80;;
78871;SDS011;68247;43.514;1.502;2023-05-07T07:35:18;11.63;;;3.53;;
78871;SDS011;68247;43.514;1.502;2023-05-07T07:37:44;10.45;;;3.22;;
78871;SDS011;68247;43.514;1.502;2023-05-07T07:40:09;12.20;;;3.83;;
78871;SDS011;68247;43.514;1.502;2023-05-07T07:42:36;14.10;;;4.18;;
78871;SDS011;68247;43.514;1.502;2023-05-07T07:45:02;14.47;;;3.87;;
78871;SDS011;68247;43.514;1.502;2023-05-07T07:47:28;17.08;;;4.18;;
78871;SDS011;68247;43.514;1.502;2023-05-07T07:49:53;12.93;;;4.10;;
78871;SDS011;68247;43.514;1.502;2023-05-07T07:52:18;11.53;;;4.20;;
78871;SDS011;68247;43.514;1.502;2023-05-07T07:54:44;12.68;;;3.88;;
78871;SDS011;68247;43.514;1.502;2023-05-07T07:57:10;15.27;;;3.70;;
78871;SDS011;68247;43.514;1.502;2023-05-07T07:59:35;12.00;;;3.63;;
78871;SDS011;68247;43.514;1.502;2023-05-07T08:02:01;11.73;;;3.70;;
78871;SDS011;68247;43.514;1.502;2023-05-07T08:04:26;10.60;;;3.37;;
78871;SDS011;68247;43.514;1.502;2023-05-07T08:06:51;10.87;;;3.27;;
78871;SDS011;68247;43.514;1.502;2023-05-07T08:09:19;14.70;;;3.60;;
78871;SDS011;68247;43.514;1.502;2023-05-07T08:11:44;9.13;;;3.73;;
78871;SDS011;68247;43.514;1.502;2023-05-07T08:14:10;10.23;;;3.50;;
78871;SDS011;68247;43.514;1.502;2023-05-07T08:16:36;12.10;;;4.03;;
78871;SDS011;68247;43.514;1.502;2023-05-07T08:19:01;14.20;;;3.33;;
78871;SDS011;68247;43.514;1.502;2023-05-07T08:21:27;11.88;;;3.58;;
78871;SDS011;68247;43.514;1.502;2023-05-07T08:23:52;12.33;;;3.70;;
78871;SDS011;68247;43.514;1.502;2023-05-07T08:26:17;10.37;;;3.47;;
78871;SDS011;68247;43.514;1.502;2023-05-07T08:28:43;11.60;;;3.67;;
78871;SDS011;68247;43.514;1.502;2023-05-07T08:31:09;11.70;;;3.60;;
78871;SDS011;68247;43.514;1.502;2023-05-07T08:33:34;13.03;;;3.43;;
78871;SDS011;68247;43.514;1.502;2023-05-07T08:36:00;19.87;;;6.17;;
78871;SDS011;68247;43.514;1.502;2023-05-07T08:38:25;15.38;;;5.43;;
78871;SDS011;68247;43.514;1.502;2023-05-07T08:40:52;12.90;;;4.30;;
78871;SDS011;68247;43.514;1.502;2023-05-07T08:43:17;14.65;;;6.35;;
78871;SDS011;68247;43.514;1.502;2023-05-07T08:45:44;14.53;;;5.73;;
78871;SDS011;68247;43.514;1.502;2023-05-07T08:48:17;14.13;;;5.40;;
78871;SDS011;68247;43.514;1.502;2023-05-07T08:50:42;17.83;;;5.95;;
78871;SDS011;68247;43.514;1.502;2023-05-07T08:53:08;16.20;;;6.70;;
78871;SDS011;68247;43.514;1.502;2023-05-07T08:55:35;17.97;;;6.87;;
78871;SDS011;68247;43.514;1.502;2023-05-07T08:58:00;17.13;;;5.85;;
78871;SDS011;68247;43.514;1.502;2023-05-07T09:00:26;11.53;;;4.63;;
78871;SDS011;68247;43.514;1.502;2023-05-07T09:02:52;13.30;;;4.40;;
78871;SDS011;68247;43.514;1.502;2023-05-07T09:05:18;13.82;;;5.00;;
78871;SDS011;68247;43.514;1.502;2023-05-07T09:07:44;12.23;;;3.92;;
78871;SDS011;68247;43.514;1.502;2023-05-07T09:10:11;10.95;;;3.70;;
78871;SDS011;68247;43.514;1.502;2023-05-07T09:12:36;13.10;;;3.50;;
78871;SDS011;68247;43.514;1.502;2023-05-07T09:15:02;10.17;;;3.40;;
78871;SDS011;68247;43.514;1.502;2023-05-07T09:17:28;12.10;;;3.92;;
78871;SDS011;68247;43.514;1.502;2023-05-07T09:19:53;14.20;;;3.60;;
78871;SDS011;68247;43.514;1.502;2023-05-07T09:22:19;8.73;;;3.43;;
78871;SDS011;68247;43.514;1.502;2023-05-07T09:24:48;11.77;;;3.73;;
78871;SDS011;68247;43.514;1.502;2023-05-07T09:27:14;10.35;;;3.47;;
78871;SDS011;68247;43.514;1.502;2023-05-07T09:29:40;8.43;;;3.43;;
78871;SDS011;68247;43.514;1.502;2023-05-07T09:32:05;10.80;;;3.72;;
78871;SDS011;68247;43.514;1.502;2023-05-07T09:34:31;11.07;;;3.50;;
78871;SDS011;68247;43.514;1.502;2023-05-07T09:36:58;15.68;;;4.10;;
78871;SDS011;68247;43.514;1.502;2023-05-07T09:39:25;7.50;;;3.20;;
78871;SDS011;68247;43.514;1.502;2023-05-07T09:41:50;12.73;;;4.03;;
78871;SDS011;68247;43.514;1.502;2023-05-07T09:44:19;10.73;;;3.83;;
78871;SDS011;68247;43.514;1.502;2023-05-07T09:46:45;9.57;;;3.25;;
78871;SDS011;68247;43.514;1.502;2023-05-07T09:49:16;12.10;;;3.40;;
78871;SDS011;68247;43.514;1.502;2023-05-07T09:51:47;14.35;;;3.80;;
78871;SDS011;68247;43.514;1.502;2023-05-07T09:54:14;8.90;;;3.38;;
78871;SDS011;68247;43.514;1.502;2023-05-07T09:56:40;12.23;;;3.80;;
78871;SDS011;68247;43.514;1.502;2023-05-07T09:59:10;13.47;;;3.97;;
78871;SDS011;68247;43.514;1.502;2023-05-07T10:01:37;11.57;;;3.40;;
78871;SDS011;68247;43.514;1.502;2023-05-07T10:04:03;10.48;;;3.85;;
78871;SDS011;68247;43.514;1.502;2023-05-07T10:06:30;13.30;;;3.60;;
78871;SDS011;68247;43.514;1.502;2023-05-07T10:08:55;10.10;;;3.53;;
78871;SDS011;68247;43.514;1.502;2023-05-07T10:11:21;11.70;;;3.95;;
78871;SDS011;68247;43.514;1.502;2023-05-07T10:13:47;11.47;;;3.20;;
78871;SDS011;68247;43.514;1.502;2023-05-07T10:16:13;11.60;;;3.55;;
78871;SDS011;68247;43.514;1.502;2023-05-07T10:18:38;10.87;;;3.47;;
78871;SDS011;68247;43.514;1.502;2023-05-07T10:21:15;9.38;;;3.75;;
78871;SDS011;68247;43.514;1.502;2023-05-07T10:23:45;8.82;;;3.10;;
78871;SDS011;68247;43.514;1.502;2023-05-07T10:26:12;9.15;;;3.45;;
78871;SDS011;68247;43.514;1.502;2023-05-07T10:28:39;9.00;;;3.10;;
78871;SDS011;68247;43.514;1.502;2023-05-07T10:31:15;8.98;;;2.58;;
78871;SDS011;68247;43.514;1.502;2023-05-07T10:33:43;13.27;;;3.60;;
78871;SDS011;68247;43.514;1.502;2023-05-07T10:36:10;14.93;;;3.78;;
78871;SDS011;68247;43.514;1.502;2023-05-07T10:38:35;13.23;;;3.27;;
78871;SDS011;68247;43.514;1.502;2023-05-07T10:41:01;9.77;;;2.87;;
78871;SDS011;68247;43.514;1.502;2023-05-07T10:43:37;11.45;;;3.60;;
78871;SDS011;68247;43.514;1.502;2023-05-07T10:46:17;11.90;;;3.57;;
78871;SDS011;68247;43.514;1.502;2023-05-07T10:51:36;11.95;;;3.67;;
78871;SDS011;68247;43.514;1.502;2023-05-07T10:54:23;12.63;;;3.15;;
78871;SDS011;68247;43.514;1.502;2023-05-07T10:56:48;12.23;;;3.17;;
78871;SDS011;68247;43.514;1.502;2023-05-07T11:01:49;9.80;;;3.78;;
78871;SDS011;68247;43.514;1.502;2023-05-07T11:04:16;10.95;;;3.90;;
78871;SDS011;68247;43.514;1.502;2023-05-07T11:12:16;11.15;;;3.97;;
78871;SDS011;68247;43.514;1.502;2023-05-07T11:14:44;10.40;;;3.33;;
78871;SDS011;68247;43.514;1.502;2023-05-07T11:17:11;9.73;;;3.53;;
78871;SDS011;68247;43.514;1.502;2023-05-07T11:19:52;9.60;;;3.80;;
78871;SDS011;68247;43.514;1.502;2023-05-07T11:22:54;8.13;;;3.38;;
78871;SDS011;68247;43.514;1.502;2023-05-07T11:25:18;8.95;;;3.22;;
78871;SDS011;68247;43.514;1.502;2023-05-07T11:27:44;10.15;;;3.30;;
78871;SDS011;68247;43.514;1.502;2023-05-07T11:30:10;11.57;;;3.33;;
78871;SDS011;68247;43.514;1.502;2023-05-07T11:32:39;8.40;;;2.90;;
78871;SDS011;68247;43.514;1.502;2023-05-07T11:35:04;9.33;;;3.30;;
78871;SDS011;68247;43.514;1.502;2023-05-07T11:37:31;8.30;;;2.85;;
78871;SDS011;68247;43.514;1.502;2023-05-07T11:40:03;7.97;;;3.00;;
78871;SDS011;68247;43.514;1.502;2023-05-07T11:42:35;8.73;;;2.97;;
78871;SDS011;68247;43.514;1.502;2023-05-07T11:45:02;6.45;;;2.80;;
78871;SDS011;68247;43.514;1.502;2023-05-07T11:47:30;9.77;;;3.10;;
78871;SDS011;68247;43.514;1.502;2023-05-07T11:49:55;7.07;;;2.22;;
78871;SDS011;68247;43.514;1.502;2023-05-07T11:52:22;10.15;;;3.00;;
78871;SDS011;68247;43.514;1.502;2023-05-07T11:54:52;9.27;;;3.00;;
78871;SDS011;68247;43.514;1.502;2023-05-07T11:57:18;7.97;;;2.60;;
78871;SDS011;68247;43.514;1.502;2023-05-07T11:59:44;8.55;;;2.30;;
78871;SDS011;68247;43.514;1.502;2023-05-07T12:02:13;8.38;;;2.85;;
78871;SDS011;68247;43.514;1.502;2023-05-07T12:04:39;7.10;;;2.55;;
78871;SDS011;68247;43.514;1.502;2023-05-07T12:07:05;8.20;;;2.90;;
78871;SDS011;68247;43.514;1.502;2023-05-07T12:09:32;7.93;;;2.80;;
78871;SDS011;68247;43.514;1.502;2023-05-07T12:12:02;10.00;;;3.17;;
78871;SDS011;68247;43.514;1.502;2023-05-07T12:14:28;7.90;;;2.60;;
78871;SDS011;68247;43.514;1.502;2023-05-07T12:16:54;8.77;;;3.00;;
78871;SDS011;68247;43.514;1.502;2023-05-07T12:19:20;9.48;;;3.00;;
78871;SDS011;68247;43.514;1.502;2023-05-07T12:21:45;6.63;;;2.70;;
78871;SDS011;68247;43.514;1.502;2023-05-07T12:24:11;7.50;;;3.03;;
78871;SDS011;68247;43.514;1.502;2023-05-07T12:26:37;7.45;;;2.50;;
78871;SDS011;68247;43.514;1.502;2023-05-07T12:29:04;8.67;;;3.30;;
78871;SDS011;68247;43.514;1.502;2023-05-07T12:31:29;7.95;;;2.85;;
78871;SDS011;68247;43.514;1.502;2023-05-07T12:33:55;7.63;;;2.90;;
78871;SDS011;68247;43.514;1.502;2023-05-07T12:36:20;6.45;;;2.40;;
78871;SDS011;68247;43.514;1.502;2023-05-07T12:38:46;8.17;;;3.07;;
78871;SDS011;68247;43.514;1.502;2023-05-07T12:41:15;6.78;;;3.20;;
78871;SDS011;68247;43.514;1.502;2023-05-07T12:43:42;7.15;;;3.00;;
78871;SDS011;68247;43.514;1.502;2023-05-07T12:46:09;8.27;;;3.30;;
78871;SDS011;68247;43.514;1.502;2023-05-07T12:48:38;7.22;;;2.95;;
78871;SDS011;68247;43.514;1.502;2023-05-07T12:51:04;7.25;;;2.78;;
78871;SDS011;68247;43.514;1.502;2023-05-07T12:53:31;7.53;;;2.60;;
78871;SDS011;68247;43.514;1.502;2023-05-07T12:55:57;6.25;;;2.55;;
78871;SDS011;68247;43.514;1.502;2023-05-07T12:58:30;6.20;;;3.13;;
78871;SDS011;68247;43.514;1.502;2023-05-07T13:00:59;8.43;;;2.80;;
78871;SDS011;68247;43.514;1.502;2023-05-07T13:03:29;8.60;;;2.40;;
78871;SDS011;68247;43.514;1.502;2023-05-07T13:05:57;7.55;;;3.00;;
78871;SDS011;68247;43.514;1.502;2023-05-07T13:08:36;7.35;;;2.42;;
78871;SDS011;68247;43.514;1.502;2023-05-07T13:11:06;7.28;;;2.30;;
78871;SDS011;68247;43.514;1.502;2023-05-07T13:13:33;6.27;;;2.50;;
78871;SDS011;68247;43.514;1.502;2023-05-07T13:16:00;6.68;;;2.70;;
78871;SDS011;68247;43.514;1.502;2023-05-07T13:18:26;7.78;;;2.90;;
78871;SDS011;68247;43.514;1.502;2023-05-07T13:20:52;5.88;;;2.05;;
78871;SDS011;68247;43.514;1.502;2023-05-07T13:23:18;6.87;;;2.83;;
78871;SDS011;68247;43.514;1.502;2023-05-07T13:25:44;8.32;;;2.95;;
78871;SDS011;68247;43.514;1.502;2023-05-07T13:28:09;6.63;;;2.67;;
78871;SDS011;68247;43.514;1.502;2023-05-07T13:30:35;6.87;;;2.50;;
78871;SDS011;68247;43.514;1.502;2023-05-07T13:33:00;6.97;;;2.60;;
78871;SDS011;68247;43.514;1.502;2023-05-07T13:35:26;6.50;;;2.90;;
78871;SDS011;68247;43.514;1.502;2023-05-07T13:37:51;6.73;;;2.80;;
78871;SDS011;68247;43.514;1.502;2023-05-07T13:40:17;5.15;;;2.55;;
78871;SDS011;68247;43.514;1.502;2023-05-07T13:42:44;7.57;;;2.97;;
78871;SDS011;68247;43.514;1.502;2023-05-07T13:45:10;6.10;;;2.73;;
78871;SDS011;68247;43.514;1.502;2023-05-07T13:47:35;5.78;;;2.83;;
78871;SDS011;68247;43.514;1.502;2023-05-07T13:50:01;5.93;;;2.23;;
78871;SDS011;68247;43.514;1.502;2023-05-07T13:52:26;5.73;;;2.23;;
78871;SDS011;68247;43.514;1.502;2023-05-07T13:54:52;8.47;;;2.23;;
78871;SDS011;68247;43.514;1.502;2023-05-07T13:57:17;5.20;;;2.80;;
78871;SDS011;68247;43.514;1.502;2023-05-07T13:59:43;4.83;;;2.10;;
78871;SDS011;68247;43.514;1.502;2023-05-07T14:02:08;5.53;;;2.35;;
78871;SDS011;68247;43.514;1.502;2023-05-07T14:04:34;6.60;;;2.50;;
78871;SDS011;68247;43.514;1.502;2023-05-07T14:06:59;6.90;;;3.20;;
78871;SDS011;68247;43.514;1.502;2023-05-07T14:09:25;6.43;;;2.77;;
78871;SDS011;68247;43.514;1.502;2023-05-07T14:11:50;8.52;;;3.28;;
78871;SDS011;68247;43.514;1.502;2023-05-07T14:14:19;5.80;;;2.40;;
78871;SDS011;68247;43.514;1.502;2023-05-07T14:16:45;5.72;;;2.97;;
78871;SDS011;68247;43.514;1.502;2023-05-07T14:19:11;5.67;;;2.37;;
78871;SDS011;68247;43.514;1.502;2023-05-07T14:21:36;6.10;;;2.40;;
78871;SDS011;68247;43.514;1.502;2023-05-07T14:24:02;11.05;;;2.28;;
78871;SDS011;68247;43.514;1.502;2023-05-07T14:26:28;4.87;;;2.10;;
78871;SDS011;68247;43.514;1.502;2023-05-07T14:28:53;7.00;;;2.30;;
78871;SDS011;68247;43.514;1.502;2023-05-07T14:31:20;6.45;;;2.65;;
78871;SDS011;68247;43.514;1.502;2023-05-07T14:33:46;6.57;;;2.30;;
78871;SDS011;68247;43.514;1.502;2023-05-07T14:36:11;6.10;;;2.20;;
78871;SDS011;68247;43.514;1.502;2023-05-07T14:38:37;5.43;;;1.97;;
78871;SDS011;68247;43.514;1.502;2023-05-07T14:41:02;6.53;;;2.00;;
78871;SDS011;68247;43.514;1.502;2023-05-07T14:43:27;5.97;;;2.30;;
78871;SDS011;68247;43.514;1.502;2023-05-07T14:45:53;4.70;;;1.63;;